createdAt,value
2022-09-25T00:01:59.372Z,12.10
2022-09-25T00:04:26.101Z,12.00
2022-09-25T00:06:52.769Z,12.10
2022-09-25T00:09:19.494Z,12.00
2022-09-25T00:11:46.420Z,12.00
2022-09-25T00:14:13.316Z,12.10
2022-09-25T00:16:40.280Z,12.00
2022-09-25T00:19:07.252Z,12.00
2022-09-25T00:21:35.425Z,12.00
2022-09-25T00:24:06.031Z,12.00
2022-09-25T00:26:36.193Z,12.00
2022-09-25T00:29:03.646Z,12.00
2022-09-25T00:31:31.190Z,11.90
2022-09-25T00:34:02.728Z,11.90
2022-09-25T00:36:30.202Z,12.00
2022-09-25T00:38:57.147Z,12.00
2022-09-25T00:41:27.187Z,11.90
2022-09-25T00:43:56.417Z,11.90
2022-09-25T00:46:40.201Z,11.90
2022-09-25T00:49:17.623Z,11.90
2022-09-25T00:51:54.787Z,11.90
2022-09-25T00:54:33.289Z,11.90
2022-09-25T00:57:04.841Z,11.80
2022-09-25T00:59:35.883Z,11.70
2022-09-25T01:02:02.661Z,11.60
2022-09-25T01:04:33.656Z,11.60
2022-09-25T01:07:00.737Z,11.60
2022-09-25T01:09:28.265Z,11.50
2022-09-25T01:11:54.935Z,11.50
2022-09-25T01:14:22.530Z,11.60
2022-09-25T01:17:16.742Z,11.60
2022-09-25T01:20:15.860Z,11.50
2022-09-25T01:23:07.268Z,11.60
2022-09-25T01:25:52.634Z,11.60
2022-09-25T01:28:46.930Z,11.60
2022-09-25T01:31:31.488Z,11.60
2022-09-25T01:34:03.909Z,11.60
2022-09-25T01:36:37.858Z,11.60
2022-09-25T01:39:17.507Z,11.60
2022-09-25T01:42:10.871Z,11.50
2022-09-25T01:44:57.165Z,11.50
2022-09-25T01:47:30.176Z,11.50
2022-09-25T01:50:06.030Z,11.50
2022-09-25T01:52:46.971Z,11.50
2022-09-25T01:55:31.097Z,11.50
2022-09-25T01:58:07.476Z,11.40
2022-09-25T02:00:37.904Z,11.40
2022-09-25T02:03:13.350Z,11.40
2022-09-25T02:05:48.490Z,11.40
2022-09-25T02:08:24.811Z,11.40
2022-09-25T02:11:04.105Z,11.40
2022-09-25T02:13:56.628Z,11.30
2022-09-25T02:16:29.579Z,11.30
2022-09-25T02:18:56.661Z,11.30
2022-09-25T02:21:38.455Z,11.30
2022-09-25T02:24:16.733Z,11.30
2022-09-25T02:26:44.009Z,11.30
2022-09-25T02:29:10.791Z,11.20
2022-09-25T02:32:12.000Z,11.20
2022-09-25T02:34:39.534Z,11.20
2022-09-25T02:37:14.604Z,11.20
2022-09-25T02:39:44.178Z,11.20
2022-09-25T02:42:28.785Z,11.30
2022-09-25T02:45:16.877Z,11.30
2022-09-25T02:48:12.897Z,11.20
2022-09-25T02:51:05.103Z,11.20
2022-09-25T02:53:43.028Z,11.20
2022-09-25T02:56:14.285Z,11.20
2022-09-25T02:58:52.026Z,11.20
2022-09-25T03:01:22.330Z,11.10
2022-09-25T03:03:53.539Z,11.10
2022-09-25T03:06:22.170Z,11.10
2022-09-25T03:08:53.538Z,11.00
2022-09-25T03:11:21.652Z,11.00
2022-09-25T03:14:00.237Z,11.00
2022-09-25T03:16:33.347Z,11.00
2022-09-25T03:19:01.225Z,11.00
2022-09-25T03:21:27.986Z,11.00
2022-09-25T03:23:54.819Z,11.00
2022-09-25T03:26:21.563Z,11.00
2022-09-25T03:28:48.432Z,11.10
2022-09-25T03:31:15.211Z,11.10
2022-09-25T03:33:43.423Z,11.10
2022-09-25T03:36:20.263Z,11.10
2022-09-25T03:38:49.123Z,11.20
2022-09-25T03:41:18.193Z,11.20
2022-09-25T03:43:44.886Z,11.20
2022-09-25T03:46:13.998Z,11.20
2022-09-25T03:48:41.802Z,11.20
2022-09-25T03:51:08.924Z,11.20
2022-09-25T03:53:36.657Z,11.20
2022-09-25T03:56:13.200Z,11.20
2022-09-25T03:58:40.330Z,11.20
2022-09-25T04:01:07.426Z,11.20
2022-09-25T04:03:34.603Z,11.20
2022-09-25T04:06:03.392Z,11.10
2022-09-25T04:08:30.825Z,11.00
2022-09-25T04:10:58.711Z,10.90
2022-09-25T04:13:31.522Z,10.90
2022-09-25T04:15:59.722Z,10.80
2022-09-25T04:18:27.538Z,10.80
2022-09-25T04:20:54.271Z,10.90
2022-09-25T04:23:20.911Z,10.90
2022-09-25T04:25:47.566Z,10.80
2022-09-25T04:28:14.296Z,10.80
2022-09-25T04:30:41.026Z,10.80
2022-09-25T04:33:08.885Z,10.80
2022-09-25T04:35:35.864Z,10.80
2022-09-25T04:38:02.782Z,10.80
2022-09-25T04:40:30.922Z,10.80
2022-09-25T04:43:02.346Z,10.80
2022-09-25T04:45:30.130Z,10.80
2022-09-25T04:47:59.631Z,10.80
2022-09-25T04:50:27.754Z,10.80
2022-09-25T04:52:56.409Z,10.80
2022-09-25T04:55:24.489Z,10.80
2022-09-25T04:57:59.865Z,10.70
2022-09-25T05:00:31.998Z,10.70
2022-09-25T05:02:59.027Z,10.70
2022-09-25T05:05:26.318Z,10.70
2022-09-25T05:07:54.332Z,10.70
2022-09-25T05:10:22.457Z,10.70
2022-09-25T05:12:54.060Z,10.70
2022-09-25T05:15:20.739Z,10.60
2022-09-25T05:17:47.479Z,10.70
2022-09-25T05:20:14.321Z,10.70
2022-09-25T05:22:40.967Z,10.70
2022-09-25T05:25:08.200Z,10.70
2022-09-25T05:27:34.977Z,10.80
2022-09-25T05:30:01.694Z,10.80
2022-09-25T05:32:28.439Z,10.80
2022-09-25T05:34:55.117Z,10.90
2022-09-25T05:37:21.868Z,10.80
2022-09-25T05:39:48.554Z,10.90
2022-09-25T05:42:15.240Z,10.90
2022-09-25T05:44:41.913Z,11.00
2022-09-25T05:47:08.653Z,11.00
2022-09-25T05:49:35.315Z,11.10
2022-09-25T05:52:02.288Z,11.10
2022-09-25T05:54:28.929Z,11.10
2022-09-25T05:56:55.626Z,11.10
2022-09-25T05:59:22.452Z,11.10
2022-09-25T06:01:49.188Z,11.10
2022-09-25T06:04:15.880Z,11.10
2022-09-25T06:06:42.532Z,11.20
2022-09-25T06:09:09.205Z,11.20
2022-09-25T06:11:36.313Z,11.20
2022-09-25T06:14:03.045Z,11.20
2022-09-25T06:16:29.738Z,11.20
2022-09-25T06:18:56.570Z,11.20
2022-09-25T06:21:23.386Z,11.30
2022-09-25T06:23:50.043Z,11.30
2022-09-25T06:26:16.745Z,11.30
2022-09-25T06:28:43.433Z,11.40
2022-09-25T06:31:10.225Z,11.30
2022-09-25T06:33:37.007Z,11.30
2022-09-25T06:36:05.800Z,11.30
2022-09-25T06:38:32.583Z,11.40
2022-09-25T06:41:00.668Z,11.40
2022-09-25T06:43:28.788Z,11.40
2022-09-25T06:45:58.957Z,11.30
2022-09-25T06:48:25.667Z,11.30
2022-09-25T06:50:54.446Z,11.20
2022-09-25T06:53:23.159Z,11.30
2022-09-25T06:55:50.311Z,11.30
2022-09-25T06:58:20.081Z,11.40
2022-09-25T07:00:51.103Z,11.40
2022-09-25T07:03:18.148Z,11.50
2022-09-25T07:05:46.114Z,11.40
2022-09-25T07:08:14.263Z,11.40
2022-09-25T07:10:46.617Z,11.40
2022-09-25T07:13:13.460Z,11.50
2022-09-25T07:15:40.213Z,11.50
2022-09-25T07:18:06.892Z,11.40
2022-09-25T07:20:36.078Z,11.40
2022-09-25T07:23:02.718Z,11.40
2022-09-25T07:25:32.247Z,11.40
2022-09-25T07:27:59.082Z,11.50
2022-09-25T07:30:29.478Z,11.50
2022-09-25T07:32:59.961Z,11.50
2022-09-25T07:35:27.070Z,11.50
2022-09-25T07:37:57.128Z,11.50
2022-09-25T07:40:24.829Z,11.60
2022-09-25T07:42:51.985Z,11.50
2022-09-25T07:45:18.830Z,11.60
2022-09-25T07:47:45.644Z,11.60
2022-09-25T07:50:15.512Z,11.60
2022-09-25T07:52:42.530Z,11.60
2022-09-25T07:55:09.741Z,11.60
2022-09-25T07:57:36.390Z,11.60
2022-09-25T08:00:03.978Z,11.70
2022-09-25T08:02:30.682Z,11.70
2022-09-25T08:04:57.374Z,11.70
2022-09-25T08:07:24.041Z,11.70
2022-09-25T08:09:50.678Z,11.70
2022-09-25T08:12:17.336Z,11.70
2022-09-25T08:14:44.011Z,11.80
2022-09-25T08:17:10.712Z,11.70
2022-09-25T08:19:37.379Z,11.70
2022-09-25T08:22:04.223Z,11.70
2022-09-25T08:24:30.879Z,11.70
2022-09-25T08:26:57.573Z,11.70
2022-09-25T08:29:24.333Z,11.80
2022-09-25T08:31:51.306Z,11.80
2022-09-25T08:34:42.119Z,11.80
2022-09-25T08:37:04.782Z,11.80
2022-09-25T08:39:31.602Z,11.90
2022-09-25T08:41:58.457Z,11.80
2022-09-25T08:45:09.128Z,11.90
2022-09-25T08:47:33.373Z,11.90
2022-09-25T08:50:09.342Z,11.90
2022-09-25T08:52:38.126Z,12.00
2022-09-25T08:55:09.660Z,11.90
2022-09-25T08:57:40.503Z,11.90
2022-09-25T09:00:17.055Z,11.90
2022-09-25T09:02:50.442Z,12.00
2022-09-25T09:05:25.690Z,12.00
2022-09-25T09:08:03.636Z,12.00
2022-09-25T09:10:30.397Z,12.10
2022-09-25T09:13:05.065Z,12.10
2022-09-25T09:15:37.503Z,12.10
2022-09-25T09:18:26.648Z,12.10
2022-09-25T09:21:10.726Z,12.20
2022-09-25T09:23:54.177Z,12.20
2022-09-25T09:26:53.580Z,12.30
2022-09-25T09:29:33.474Z,12.30
2022-09-25T09:32:18.578Z,12.30
2022-09-25T09:35:05.651Z,12.30
2022-09-25T09:37:41.588Z,12.40
2022-09-25T09:40:39.816Z,12.40
2022-09-25T09:43:39.151Z,12.40
2022-09-25T09:46:15.431Z,12.50
2022-09-25T09:49:12.913Z,12.50
2022-09-25T09:51:50.713Z,12.60
2022-09-25T09:54:25.811Z,12.70
2022-09-25T09:56:54.886Z,12.80
2022-09-25T09:59:43.044Z,12.90
2022-09-25T10:02:40.968Z,13.00
2022-09-25T10:05:36.269Z,13.00
2022-09-25T10:08:03.142Z,13.10
2022-09-25T10:10:42.296Z,13.00
2022-09-25T10:13:33.763Z,13.00
2022-09-25T10:16:12.406Z,12.90
2022-09-25T10:19:00.528Z,13.00
2022-09-25T10:22:07.675Z,13.10
2022-09-25T10:25:01.193Z,13.20
2022-09-25T10:27:39.234Z,13.10
2022-09-25T10:30:12.007Z,13.20
2022-09-25T10:33:12.857Z,13.10
2022-09-25T10:35:39.493Z,13.10
2022-09-25T10:38:37.104Z,13.10
2022-09-25T10:41:15.441Z,13.20
2022-09-25T10:43:54.432Z,13.30
2022-09-25T10:46:35.001Z,13.40
2022-09-25T10:49:34.286Z,13.50
2022-09-25T10:52:09.902Z,13.40
2022-09-25T10:54:43.651Z,13.40
2022-09-25T10:57:33.857Z,13.40
2022-09-25T11:00:02.632Z,13.40
2022-09-25T11:02:42.519Z,13.40
2022-09-25T11:05:25.547Z,13.40
2022-09-25T11:07:55.917Z,13.50
2022-09-25T11:10:26.830Z,13.50
2022-09-25T11:12:54.526Z,13.50
2022-09-25T11:15:24.116Z,13.60
2022-09-25T11:17:53.619Z,13.70
2022-09-25T11:20:29.892Z,13.70
2022-09-25T11:23:33.499Z,13.60
2022-09-25T11:26:15.647Z,13.60
2022-09-25T11:29:19.393Z,13.70
2022-09-25T11:32:07.331Z,13.80
2022-09-25T11:34:40.584Z,13.90
2022-09-25T11:38:02.500Z,14.00
2022-09-25T11:40:38.865Z,13.80
2022-09-25T11:43:12.515Z,13.80
2022-09-25T11:45:51.555Z,13.80
2022-09-25T11:49:01.434Z,13.80
2022-09-25T11:51:38.174Z,13.80
2022-09-25T11:54:36.570Z,13.80
2022-09-25T11:57:45.787Z,13.70
2022-09-25T12:00:18.054Z,13.80
2022-09-25T12:03:02.736Z,13.70
2022-09-25T12:05:59.651Z,13.80
2022-09-25T12:09:03.776Z,13.80
2022-09-25T12:11:44.204Z,14.00
2022-09-25T12:14:40.225Z,13.90
2022-09-25T12:17:25.911Z,14.10
2022-09-25T12:20:11.359Z,14.20
2022-09-25T12:23:02.169Z,14.30
2022-09-25T12:25:50.467Z,14.30
2022-09-25T12:28:38.676Z,14.30
2022-09-25T12:31:17.263Z,14.40
2022-09-25T12:34:02.535Z,14.60
2022-09-25T12:36:33.606Z,14.90
2022-09-25T12:39:35.679Z,15.20
2022-09-25T12:42:15.728Z,15.20
2022-09-25T12:44:54.813Z,15.10
2022-09-25T12:47:45.788Z,15.20
2022-09-25T12:50:18.821Z,15.10
2022-09-25T12:53:17.070Z,14.80
2022-09-25T12:55:48.610Z,14.80
2022-09-25T12:58:33.168Z,14.70
2022-09-25T13:01:13.238Z,14.60
2022-09-25T13:03:46.000Z,14.50
2022-09-25T13:06:31.404Z,14.50
2022-09-25T13:09:27.622Z,14.50
2022-09-25T13:12:16.928Z,14.40
2022-09-25T13:15:03.315Z,14.30
2022-09-25T13:17:30.637Z,14.20
2022-09-25T13:20:29.005Z,14.20
2022-09-25T13:23:11.404Z,14.30
2022-09-25T13:25:48.799Z,14.40
2022-09-25T13:28:25.775Z,14.40
2022-09-25T13:31:10.994Z,14.30
2022-09-25T13:33:55.719Z,14.50
2022-09-25T13:36:25.340Z,14.70
2022-09-25T13:39:31.185Z,15.00
2022-09-25T13:42:08.276Z,14.90
2022-09-25T13:44:42.264Z,14.80
2022-09-25T13:47:26.938Z,14.90
2022-09-25T13:50:11.796Z,14.90
2022-09-25T13:52:38.426Z,14.80
2022-09-25T13:55:15.001Z,14.70
2022-09-25T13:58:01.710Z,14.80
2022-09-25T14:00:37.356Z,15.00
2022-09-25T14:03:05.159Z,15.00
2022-09-25T14:05:36.778Z,15.10
2022-09-25T14:08:09.148Z,15.20
2022-09-25T14:10:42.583Z,15.40
2022-09-25T14:13:13.654Z,15.30
2022-09-25T14:15:42.097Z,15.30
2022-09-25T14:18:17.495Z,15.50
2022-09-25T14:20:47.353Z,15.50
2022-09-25T14:23:20.166Z,15.40
2022-09-25T14:25:47.968Z,15.30
2022-09-25T14:28:34.759Z,15.20
2022-09-25T14:31:20.670Z,15.00
2022-09-25T14:34:10.226Z,15.20
2022-09-25T14:36:39.727Z,15.10
2022-09-25T14:39:12.302Z,15.10
2022-09-25T14:41:57.586Z,15.10
2022-09-25T14:44:30.438Z,15.10
2022-09-25T14:46:57.728Z,15.30
2022-09-25T14:49:34.155Z,15.40
2022-09-25T14:52:05.578Z,15.40
2022-09-25T14:54:35.774Z,15.40
2022-09-25T14:57:02.704Z,15.50
2022-09-25T14:59:43.589Z,15.50
2022-09-25T15:02:24.529Z,15.50
2022-09-25T15:04:51.376Z,15.40
2022-09-25T15:07:23.239Z,15.30
2022-09-25T15:09:51.736Z,15.20
2022-09-25T15:12:27.137Z,15.20
2022-09-25T15:15:03.774Z,15.10
2022-09-25T15:17:32.424Z,15.10
2022-09-25T15:20:02.842Z,15.20
2022-09-25T15:22:35.265Z,15.20
2022-09-25T15:25:05.423Z,15.00
2022-09-25T15:27:32.411Z,15.00
2022-09-25T15:29:59.627Z,15.00
2022-09-25T15:32:38.969Z,15.00
2022-09-25T15:35:16.904Z,14.90
2022-09-25T15:37:44.778Z,15.00
2022-09-25T15:40:17.229Z,14.90
2022-09-25T15:42:45.596Z,14.90
2022-09-25T15:45:39.308Z,15.00
2022-09-25T15:48:23.226Z,14.90
2022-09-25T15:50:50.947Z,14.90
2022-09-25T15:53:21.689Z,14.80
2022-09-25T15:55:59.917Z,14.80
2022-09-25T15:58:26.748Z,14.80
2022-09-25T16:00:59.767Z,14.90
2022-09-25T16:03:30.454Z,14.80
2022-09-25T16:05:57.611Z,14.80
2022-09-25T16:08:24.277Z,14.80
2022-09-25T16:11:09.107Z,14.80
2022-09-25T16:13:38.109Z,14.80
2022-09-25T16:16:16.572Z,14.70
2022-09-25T16:18:43.774Z,14.70
2022-09-25T16:21:21.254Z,14.70
2022-09-25T16:23:57.425Z,14.60
2022-09-25T16:26:28.571Z,14.60
2022-09-25T16:29:04.204Z,14.60
2022-09-25T16:31:32.674Z,14.60
2022-09-25T16:33:59.626Z,14.60
2022-09-25T16:36:28.335Z,14.60
2022-09-25T16:39:10.118Z,14.50
2022-09-25T16:41:39.228Z,14.50
2022-09-25T16:44:16.694Z,14.50
2022-09-25T16:47:13.129Z,14.40
2022-09-25T16:49:40.069Z,14.40
2022-09-25T16:52:07.749Z,14.40
2022-09-25T16:54:37.676Z,14.40
2022-09-25T16:57:04.585Z,14.30
2022-09-25T16:59:31.444Z,14.30
2022-09-25T17:02:02.057Z,14.20
2022-09-25T17:04:30.996Z,14.20
2022-09-25T17:06:58.217Z,14.20
2022-09-25T17:09:26.991Z,14.10
2022-09-25T17:12:03.149Z,14.10
2022-09-25T17:14:29.896Z,14.10
2022-09-25T17:16:57.551Z,14.10
2022-09-25T17:19:25.006Z,14.10
2022-09-25T17:21:53.383Z,14.10
2022-09-25T17:24:26.721Z,14.00
2022-09-25T17:26:54.056Z,14.00
2022-09-25T17:29:21.187Z,14.00
2022-09-25T17:31:47.923Z,14.00
2022-09-25T17:34:17.020Z,13.90
2022-09-25T17:36:44.180Z,13.90
2022-09-25T17:39:11.349Z,13.90
2022-09-25T17:41:39.179Z,13.80
2022-09-25T17:44:06.625Z,13.80
2022-09-25T17:46:33.909Z,13.80
2022-09-25T17:49:00.958Z,13.80
2022-09-25T17:51:29.100Z,13.80
2022-09-25T17:53:57.040Z,13.80
2022-09-25T17:56:24.898Z,13.80
2022-09-25T17:58:51.998Z,13.70
2022-09-25T18:01:24.275Z,13.70
2022-09-25T18:03:52.534Z,13.60
2022-09-25T18:06:19.483Z,13.60
2022-09-25T18:08:46.932Z,13.60
2022-09-25T18:11:15.409Z,13.50
2022-09-25T18:13:42.202Z,13.60
2022-09-25T18:16:19.078Z,13.50
2022-09-25T18:18:46.515Z,13.60
2022-09-25T18:21:13.257Z,13.60
2022-09-25T18:23:39.986Z,13.50
2022-09-25T18:26:08.985Z,13.50
2022-09-25T18:28:35.895Z,13.50
2022-09-25T18:31:02.626Z,13.50
2022-09-25T18:33:29.422Z,13.60
2022-09-25T18:35:56.153Z,13.60
2022-09-25T18:38:22.999Z,13.50
2022-09-25T18:40:49.837Z,13.50
2022-09-25T18:43:16.643Z,13.50
2022-09-25T18:45:48.897Z,13.50
2022-09-25T18:48:15.690Z,13.50
2022-09-25T18:50:46.127Z,13.50
2022-09-25T18:53:13.438Z,13.50
2022-09-25T18:55:40.398Z,13.50
2022-09-25T18:58:07.110Z,13.40
2022-09-25T19:00:33.962Z,13.40
2022-09-25T19:03:00.769Z,13.30
2022-09-25T19:05:28.061Z,13.30
2022-09-25T19:07:54.890Z,13.30
2022-09-25T19:10:22.361Z,13.30
2022-09-25T19:12:49.084Z,13.30
2022-09-25T19:15:15.957Z,13.30
2022-09-25T19:17:43.173Z,13.30
2022-09-25T19:20:10.219Z,13.30
2022-09-25T19:22:37.057Z,13.30
2022-09-25T19:25:04.028Z,13.30
2022-09-25T19:27:31.259Z,13.30
2022-09-25T19:29:58.009Z,13.30
2022-09-25T19:32:24.733Z,13.40
2022-09-25T19:34:52.112Z,13.40
2022-09-25T19:37:18.838Z,13.30
2022-09-25T19:39:45.505Z,13.40
2022-09-25T19:42:12.213Z,13.30
2022-09-25T19:44:39.007Z,13.20
2022-09-25T19:47:05.668Z,13.20
2022-09-25T19:49:32.360Z,13.20
2022-09-25T19:51:59.065Z,13.20
2022-09-25T19:54:25.798Z,13.20
2022-09-25T19:56:52.427Z,13.20
2022-09-25T19:59:19.378Z,13.20
2022-09-25T20:01:46.242Z,13.10
2022-09-25T20:04:18.342Z,13.10
2022-09-25T20:06:46.568Z,13.10
2022-09-25T20:09:13.603Z,13.10
2022-09-25T20:11:40.410Z,13.10
2022-09-25T20:14:07.642Z,13.00
2022-09-25T20:16:34.605Z,13.10
2022-09-25T20:19:03.630Z,13.10
2022-09-25T20:21:33.856Z,13.10
2022-09-25T20:24:03.809Z,13.00
2022-09-25T20:26:31.220Z,13.00
2022-09-25T20:29:03.903Z,13.00
2022-09-25T20:31:32.455Z,13.00
2022-09-25T20:34:00.146Z,12.90
2022-09-25T20:36:27.325Z,12.90
2022-09-25T20:38:55.388Z,12.90
2022-09-25T20:41:23.846Z,12.80
2022-09-25T20:43:52.834Z,12.90
2022-09-25T20:46:20.446Z,12.90
2022-09-25T20:48:49.182Z,12.80
2022-09-25T20:51:30.462Z,12.80
2022-09-25T20:53:59.761Z,12.90
2022-09-25T20:56:28.346Z,13.00
2022-09-25T20:58:56.519Z,12.90
2022-09-25T21:01:29.401Z,12.90
2022-09-25T21:03:59.624Z,12.80
2022-09-25T21:06:28.952Z,12.80
2022-09-25T21:08:58.737Z,12.80
2022-09-25T21:11:26.406Z,12.70
2022-09-25T21:13:55.277Z,12.70
2022-09-25T21:16:22.940Z,12.70
2022-09-25T21:18:57.890Z,12.70
2022-09-25T21:21:26.764Z,12.60
2022-09-25T21:23:55.918Z,12.60
2022-09-25T21:26:25.361Z,12.70
2022-09-25T21:28:53.869Z,12.70
2022-09-25T21:31:26.414Z,12.70
2022-09-25T21:33:57.477Z,12.70
2022-09-25T21:36:25.635Z,12.70
2022-09-25T21:38:52.772Z,12.70
2022-09-25T21:41:22.069Z,12.60
2022-09-25T21:43:52.616Z,12.60
2022-09-25T21:46:20.129Z,12.50
2022-09-25T21:48:50.384Z,12.50
2022-09-25T21:51:18.982Z,12.50
2022-09-25T21:53:45.817Z,12.50
2022-09-25T21:56:20.940Z,12.60
2022-09-25T21:58:48.223Z,12.50
2022-09-25T22:01:17.536Z,12.50
2022-09-25T22:03:49.452Z,12.40
2022-09-25T22:06:21.419Z,12.40
2022-09-25T22:08:50.716Z,12.40
2022-09-25T22:11:18.532Z,12.40
2022-09-25T22:13:46.961Z,12.40
2022-09-25T22:16:26.025Z,12.40
2022-09-25T22:18:55.997Z,12.40
2022-09-25T22:21:26.631Z,12.30
2022-09-25T22:23:53.396Z,12.20
2022-09-25T22:26:21.260Z,12.10
2022-09-25T22:28:48.605Z,12.10
2022-09-25T22:31:21.180Z,12.20
2022-09-25T22:33:49.026Z,12.20
2022-09-25T22:36:15.782Z,12.20
2022-09-25T22:38:42.527Z,12.20
2022-09-25T22:41:12.316Z,12.30
2022-09-25T22:43:39.776Z,12.20
2022-09-25T22:46:07.888Z,12.30
2022-09-25T22:48:35.302Z,12.20
2022-09-25T22:51:26.986Z,12.20
2022-09-25T22:53:54.578Z,12.30
2022-09-25T22:56:24.081Z,12.30
2022-09-25T22:58:56.658Z,12.20
2022-09-25T23:01:42.612Z,12.20
2022-09-25T23:04:21.189Z,12.20
2022-09-25T23:06:49.033Z,12.20
2022-09-25T23:09:19.053Z,12.20
2022-09-25T23:11:45.967Z,12.20
2022-09-25T23:14:15.655Z,12.10
2022-09-25T23:16:43.444Z,12.10
2022-09-25T23:19:10.629Z,12.20
2022-09-25T23:21:37.584Z,12.20
2022-09-25T23:24:07.536Z,12.10
2022-09-25T23:26:34.642Z,12.20
2022-09-25T23:29:01.624Z,12.10
2022-09-25T23:31:30.022Z,12.00
2022-09-25T23:33:59.461Z,12.00
2022-09-25T23:36:27.190Z,12.10
2022-09-25T23:38:55.828Z,12.10
2022-09-25T23:41:32.629Z,12.10
2022-09-25T23:44:01.287Z,12.10
2022-09-25T23:46:31.370Z,12.10
2022-09-25T23:48:59.244Z,12.10
2022-09-25T23:51:26.385Z,12.10
2022-09-25T23:53:54.309Z,12.10
2022-09-25T23:56:26.325Z,12.10
2022-09-25T23:58:53.576Z,12.00
